Aérodrome :
LOGIN :

S'inscrire | Disclaimer

   EN    FR    IT 

 










Légende :    VFR   VFR Marginal   IFR   IFR Intensif   IFR Très Intensif
Visi : 
Plafond : 
>= 8 km
>= 3000ft
5 à 8 km
1000 à 3000 ft
1500m à 5 km
500 à 1000 ft
800 à 1500m
200 à 500 ft
< 800m
< 200 ft
Symboles :   Orages  Brouillard  Fortes neiges  Fortes précipitations  Vent > 20 kt
SIGMETs :   Divers  Orages  Givrage  Turbulence  Onde Orograph.  Cendres Volcan.






- Altitude de l'aérodrome : 580 ft


LFOA - Avord

DERNIER METAR :
  • 160230Z AUTO 00000KT 8000 NSC M03/M04 Q1029

METARs EXPIRÉS :
  • 160200Z AUTO 00000KT CAVOK M03/M04 Q1030
  • 160130Z AUTO 36002KT CAVOK M03/M04 Q1029
  • 160100Z AUTO 36001KT CAVOK M03/M04 Q1029
  • 160030Z AUTO 35003KT CAVOK M02/M04 Q1030
  • 160000Z AUTO 36003KT CAVOK M02/M04 Q1030

TAF TAF LFOA
Valide du 15 à 15h jusqu'au 16 à 15h UTC


151400Z 1515/1615 35010KT 9999 SCT015 BKN025 TX03/1612Z TNM03/1605Z
BECMG 1519/1521 VRB02KT
TEMPO 1602/1608 4000 BR BKN007
PROB40
TEMPO 1605/1608 0800 FZFG VV///
BECMG 1611/1613 20008KT -SN
TEMPO 1613/1615 2000 SN BKN005 OVC010



MET'MAP, la Météo Aéronautique d'un coup d'oeil ! - Copyright ORBIFLY Décembre 2007 - Disclaimer

ORBIFLY MET'MAP TEAM :

Programmation & Développement : Alexandra Zaïnal
Sur une idée originale de : Baudouin d'Aumeries
Assistance à la programmation : Marc-Olivier Méhu
Soutien technique & logistique : Manuel Goepfert

Contact : metmap@orbifly.com




SOURCES & CREDITS :

   NOAA